Burlington Executive Airpark

CZBA · 安大略, 加拿大

METAR的历史 CZBA · Burlington Executive Airpark

下面你可以看到过去几天的METARs。 选择年份以浏览从2007年开始的旧METAR。

2024年2月25日

时间 代码 天气 温度 能见度 天花板 METAR/SPECI
03:00
V
-7 °C 15 mi - 210° 210° 9 kt METAR CYHM 250800Z 21009KT 15SM SCT140 M07/M09 A3000 RMK AC3 SLP173
02:00
V
-7 °C 15 mi 14.000 ft 220° 220° 10 kt METAR CYHM 250700Z 22010KT 15SM BKN140 M07/M10 A3001 RMK AC6 SLP179
01:00
V
-7 °C 15 mi - 210° 210° 7 kt METAR CYHM 250600Z 21007KT 15SM FEW130 M07/M10 A3000 RMK ACC2 FROIN SLP175
00:00
V
-8 °C 15 mi - 210° 210° 6 kt METAR CYHM 250500Z 21006KT 15SM SKC M08/M11 A3000 RMK SLP177

2024年2月24日

时间 代码 天气 温度 能见度 天花板 METAR/SPECI
23:00
V
-8 °C 15 mi - 220° 220° 5 kt METAR CYHM 250400Z 22005KT 15SM SKC M08/M11 A3001 RMK SLP179
22:00
V
-8 °C 15 mi - 210° 210° 6 kt METAR CYHM 250300Z 21006KT 15SM SKC M08/M12 A3001 RMK SLP181
21:00
V
-7 °C 15 mi - 200° 200° 5 kt METAR CYHM 250200Z 20005KT 15SM SKC M07/M12 A3002 RMK SLP182
20:00
V
-6 °C 15 mi - 240° 240° 3 kt METAR CYHM 250100Z 24003KT 15SM SKC M06/M12 A3001 RMK SLP180
19:00
V
-5 °C 15 mi - 290° 290° 3 kt METAR CYHM 250000Z 29003KT 15SM SKC M05/M14 A3001 RMK SLP180
18:00
V
-4 °C 15 mi - 280° 280° 7 kt METAR CYHM 242300Z 28007KT 15SM FEW240 M04/M14 A3000 RMK CI1 CI TR SLP177
17:00
V
-3 °C 15 mi - 290° 290° 6 kt METAR CYHM 242200Z 29006KT 270V080 15SM FEW250 M03/M16 A2997 RMK CI1 SLP165
16:00
V
-3 °C 15 mi - 080° 080° 3 kt METAR CYHM 242100Z 08003KT 030V150 15SM SKC M03/M17 A2996 RMK SLP162
15:00
V
-4 °C 15 mi - 050° 050° 5 kt METAR CYHM 242000Z 05005KT 360V140 15SM SKC M04/M18 A2997 RMK SLP163
14:00
V
-5 °C 15 mi - 010° 010° 6 kt METAR CYHM 241900Z 01006KT 260V060 15SM SKC M05/M18 A2996 RMK SLP161
13:00
V
-6 °C 15 mi - 020° 020° 6 kt METAR CYHM 241800Z 02006KT 340V040 15SM FEW035 M06/M19 A2996 RMK CF1 CF TR SLP162
12:00
V
-7 °C 15 mi - 020° 020° 8 kt METAR CYHM 241700Z 02008KT 340V050 15SM FEW035 M07/M19 A2997 RMK CF1 CF TR SLP165
11:00
V
-8 °C 15 mi - 020° 020° 7 kt METAR CYHM 241600Z 02007KT 15SM FEW030 FEW240 M08/M18 A2996 RMK CF1CI1 CI TR SLP162
10:00
V
-10 °C 15 mi - 030° 030° 9 kt METAR CYHM 241500Z 03009KT 15SM FEW025 FEW320 M10/M20 A2996 RMK CF1CI1 CI TR SLP162
09:00
V
-11 °C 15 mi - 030° 030° 11 - 17 kt METAR CYHM 241400Z 03011G17KT 15SM FEW020 FEW220 M11/M20 A2995 RMK CF1CI1 CI TR SLP159
08:00
V
-12 °C 15 mi - 360° 360° 11 kt METAR CYHM 241300Z 36011KT 15SM FEW015 FEW220 M12/M20 A2994 RMK CF1CI1 CF TR SLP154
07:00
V
-13 °C 15 mi - 010° 010° 12 kt METAR CYHM 241200Z 01012KT 15SM FEW015 FEW220 M13/M20 A2990 RMK SC1CI1 SC TR SLP140
06:00
V
-12 °C 15 mi - 010° 010° 13 - 18 kt METAR CYHM 241100Z 01013G18KT 15SM FEW250 M12/M20 A2987 RMK CI2 SLP129
05:00
V
-11 °C 15 mi - 350° 350° 8 kt METAR CYHM 241000Z 35008KT 15SM FEW120 FEW250 M11/M18 A2985 RMK AC1CI1 AC TR CI TR SLP121
04:00
V
-11 °C 15 mi - 010° 010° 10 kt METAR CYHM 240900Z 01010KT 15SM FEW130 FEW250 M11/M18 A2982 RMK AC1CI1 AC TR SLP110
03:00
V
-9 °C 15 mi - 010° 010° 11 - 17 kt METAR CYHM 240800Z 01011G17KT 15SM FEW120 FEW250 M09/M17 A2980 RMK AC1CI1 SLP102
02:00
V
-8 °C 15 mi 12.000 ft 010° 010° 8 kt METAR CYHM 240700Z 01008KT 15SM -SN BKN120 BKN250 M08/M16 A2978 RMK AC5CS1 HALO SLP096
01:00
V
-7 °C 15 mi 11.000 ft 340° 340° 12 kt METAR CYHM 240600Z 34012KT 15SM FEW075 BKN110 BKN250 M07/M15 A2977 RMK AC1AC5CS2 AC TR HALO SLP090
00:00
V
-6 °C 15 mi 18.000 ft 350° 350° 11 kt METAR CYHM 240500Z 35011KT 15SM FEW100 SCT130 BKN180 M06/M14 A2975 RMK AC2AC2AC2 SLP087

2024年2月23日

时间 代码 天气 温度 能见度 天花板 METAR/SPECI
23:00
V
-6 °C 15 mi - 330° 330° 11 kt METAR CYHM 240400Z 33011KT 15SM -SN SCT140 SCT250 M06/M13 A2973 RMK AC3CI1 SLP080
22:47
V
-6 °C 15 mi - 350° 350° 12 kt METAR CYHM 240347Z 35012KT 15SM -SN SCT120 M06/M13 A2973 RMK AC4 SLP079
22:00
V
-4 °C 15 mi 13.000 ft 340° 340° 11 - 16 kt METAR CYHM 240300Z 34011G16KT 15SM FEW095 BKN130 M04/M10 A2971 RMK AC2AC3 SLP074
21:00
V
-2 °C 15 mi 7.800 ft 330° 330° 10 kt METAR CYHM 240200Z 33010KT 15SM BKN078 OVC120 M02/M11 A2970 RMK AC6AC2 MOON VISBL SLP070
20:00
V
-1 °C 15 mi 6.500 ft 340° 340° 12 kt METAR CYHM 240100Z 34012KT 15SM FEW027 OVC065 M01/M09 A2968 RMK SC1SC7 SLP061
19:00
V
0 °C 15 mi 9.000 ft 320° 320° 12 kt METAR CYHM 240000Z 32012KT 15SM FEW030 FEW075 BKN090 BKN200 M00/M06 A2965 RMK SC1AC2AC4CI1 SC TR SLP051
18:00
V
2 °C 15 mi 10.000 ft 310° 310° 15 kt METAR CYHM 232300Z 31015KT 15SM FEW030 FEW080 BKN100 BKN200 02/M04 A2960 RMK SC1AC1AS6CI1 SC TR AC TR SLP035
17:00
V
4 °C 15 mi 10.000 ft 330° 330° 13 kt METAR CYHM 232200Z 33013KT 15SM SCT030 BKN100 BKN200 04/M02 A2956 RMK SC3AC2CI2 SLP019
16:00
V
6 °C 15 mi 22.000 ft 310° 310° 11 - 20 kt METAR CYHM 232100Z 31011G20KT 280V350 15SM FEW050 BKN220 06/M01 A2953 RMK SC1CI5 CU ASOCTD SLP009
15:00
V
7 °C 15 mi 25.000 ft 300° 300° 13 kt METAR CYHM 232000Z 30013KT 15SM FEW055 FEW140 SCT180 BKN250 07/M00 A2951 RMK CU1AC1AS2CI3 CU TR SLP003
14:00
V
10 °C 15 mi 25.000 ft 290° 290° 8 kt METAR CYHM 231900Z 29008KT 15SM FEW035 FEW160 BKN250 10/M01 A2949 RMK CU1AC1CI5 AC TR SLP995
13:00
V
9 °C 15 mi 24.000 ft 290° 290° 7 kt METAR CYHM 231800Z 29007KT 190V310 15SM FEW060 FEW080 BKN240 09/M01 A2950 RMK SC1AC1CI5 SC TR AC TR SLP996
12:00
V
6 °C 8 mi 7.500 ft 230° 230° 5 kt METAR CYHM 231700Z 23005KT 200V260 8SM FEW062 BKN075 06/03 A2952 RMK SC2AC3 SLP004
11:00
V
3 °C 6 mi 6.200 ft 230° 230° 9 kt METAR CYHM 231600Z 23009KT 6SM BR FEW005 BKN062 BKN075 03/03 A2952 RMK SF1SC5AC2 SF TR SLP007
10:35
M
2 °C 4 mi 6.300 ft 240° 240° 7 kt METAR CYHM 231535Z 24007KT 4SM BR SCT003 BKN063 02/02 A2952 RMK ST4SC2 SLP007
10:12
L
1 °C 2¼ mi 200 ft 230° 230° 9 kt METAR CYHM 231512Z 23009KT 2 1/4SM BR BKN002 01/01 A2952 RMK ST7 SLP006
10:00
L
1 °C 1½ mi 200 ft 240° 240° 9 kt METAR CYHM 231500Z 24009KT 1 1/2SM R12/5000VP6000FT/U BR BKN002 01/01 A2952 RMK ST7 SLP006
09:45
L
0 °C 1 mi 100 ft 240° 240° 9 kt METAR CYHM 231445Z 24009KT 1SM R12/2800V3000FT/N BR BKN001 00/00 A2952 RMK FG3ST4 SLP006
09:43
L
1 °C ¾ mi 100 ft 240° 240° 9 kt METAR CYHM 231443Z 24009KT 3/4SM R12/2600V3500FT/D BR BKN001 01/01 A2952 RMK FG3ST4 SLP007
09:27
L
0 °C ¼ mi 100 ft 230° 230° 10 kt METAR CYHM 231427Z 23010KT 1/4SM R12/2600V3000FT/N FZFG VV001 M00/M00 A2952 RMK FG8 SLP007
09:00
L
-1 °C ⅛ mi 200 ft 240° 240° 9 kt METAR CYHM 231400Z 24009KT 1/8SM R12/2000V2200FT/N FZFG VV002 M01/M01 A2952 RMK FG8 SLP007
08:00
L
-1 °C ⅛ mi 100 ft 210° 210° 9 kt METAR CYHM 231300Z 21009KT 1/8SM R12/1400V1600FT/N FZFG VV001 M01/M01 A2951 RMK FG8 SLP004
07:00
L
-2 °C ⅛ mi 100 ft 210° 210° 6 kt METAR CYHM 231200Z 21006KT 1/8SM R12/2200V2600FT/N FZFG VV001 M02/M02 A2951 RMK FG8 SLP003
06:40
L
-2 °C ⅛ mi 100 ft 210° 210° 8 kt METAR CYHM 231140Z 21008KT 1/8SM R12/2000V2400FT/N FZFG VV001 M02/M02 A2951 RMK FG8 SLP002
06:33
L
-2 °C ¼ mi 100 ft 200° 200° 7 kt METAR CYHM 231133Z 20007KT 1/4SM R12/2000V2400FT/N FZFG VV001 M02/M02 A2951 RMK FG8 SLP001
06:22
L
-2 °C ⅜ mi 100 ft 200° 200° 7 kt METAR CYHM 231122Z 20007KT 3/8SM R12/2400V3000FT/D FZFG VV001 M02/M02 A2951 RMK FG8 SLP001
06:17
L
-2 °C ½ mi 100 ft 200° 200° 7 kt METAR CYHM 231117Z 20007KT 1/2SM R12/2600V3000FT/N FZFG VV001 M02/M02 A2951 RMK FG8 SLP002
06:00
L
-2 °C ¾ mi 200 ft 200° 200° 7 kt METAR CYHM 231100Z 20007KT 3/4SM R12/2800V3500FT/N -FZDZ BR BKN002 M02/M02 A2951 RMK FG4SF2 FROIN VIS VRB 1/2 - 1 SLP001
05:29
L
-2 °C ¾ mi 200 ft 190° 190° 5 kt METAR CYHM 231029Z CCA 19005KT 3/4SM R12/2600V3500FT/N BR BKN002 M02/M02 A2951 RMK FG4SF2 VIS VRB 1/2 - 1 SLP003
05:00
L
-2 °C ½ mi 200 ft 210° 210° 6 kt METAR CYHM 231000Z 21006KT 1/2SM R12/2000V2200FT/N -FZDZ FZFG BKN002 M02/M02 A2951 RMK FG5SF2 FROIN MOON BRIGHTLY VISBL SLP003
04:00
L
-2 °C ½ mi 100 ft 220° 220° 6 kt METAR CYHM 230900Z 22006KT 1/2SM R12/1600V2000FT/N -FZDZ FZFG BKN001 M02/M02 A2952 RMK FG5SF2 FROIN MOON BRIGHTLY VISBL SLP005
03:15
L
-2 °C ½ mi 100 ft 210° 210° 5 kt METAR CYHM 230815Z 21005KT 1/2SM R12/1600V1800FT/N -FZDZ FZFG BKN001 M02/M02 A2953 RMK FG5SF2 SLP007
03:00
L
-1 °C ¼ mi 200 ft 230° 230° 6 kt METAR CYHM 230800Z 23006KT 1/4SM R12/1600FT/N -FZDZ FZFG BKN002 M01/M01 A2953 RMK FG5SF2 FROIN MOON VISBL SLP008
02:00
L
-1 °C ¼ mi 100 ft 220° 220° 4 kt METAR CYHM 230700Z 22004KT 1/4SM R12/1200V1400FT/N FZFG BKN001 M01/M01 A2954 RMK FG5SF2 MOON BRIGHTLY VISBL SLP012
01:00
L
0 °C ¼ mi 200 ft 240° 240° 5 kt METAR CYHM 230600Z 24005KT 1/4SM R12/1200FT/N FG BKN002 00/00 A2955 RMK FG5SF2 MOON BRIGHTLY VISBL SLP016